createdAt,value
2018-01-11T00:01:15.884Z,96.68
2018-01-11T00:03:43.360Z,96.66
2018-01-11T00:06:10.861Z,96.73
2018-01-11T00:08:38.328Z,96.72
2018-01-11T00:11:05.824Z,96.70
2018-01-11T00:13:33.310Z,96.70
2018-01-11T00:16:00.790Z,96.67
2018-01-11T00:18:28.254Z,96.67
2018-01-11T00:20:55.752Z,96.69
2018-01-11T00:23:23.225Z,96.67
2018-01-11T00:25:50.691Z,96.67
2018-01-11T00:28:18.182Z,96.67
2018-01-11T00:30:45.654Z,96.67
2018-01-11T00:33:13.134Z,96.74
2018-01-11T00:35:40.626Z,96.73
2018-01-11T00:38:08.106Z,96.70
2018-01-11T00:40:35.586Z,96.68
2018-01-11T00:43:03.082Z,96.59
2018-01-11T00:45:30.546Z,96.37
2018-01-11T00:47:58.020Z,96.29
2018-01-11T00:50:25.522Z,96.27
2018-01-11T00:52:52.989Z,96.28
2018-01-11T00:55:20.454Z,96.23
2018-01-11T00:57:47.934Z,96.26
2018-01-11T01:00:15.395Z,96.40
2018-01-11T01:02:42.915Z,96.48
2018-01-11T01:05:10.460Z,96.52
2018-01-11T01:07:37.930Z,96.53
2018-01-11T01:10:05.425Z,96.54
2018-01-11T01:12:32.891Z,96.56
2018-01-11T01:15:00.354Z,96.60
2018-01-11T01:17:27.863Z,96.59
2018-01-11T01:19:55.334Z,96.64
2018-01-11T01:22:22.798Z,96.68
2018-01-11T01:24:50.352Z,96.70
2018-01-11T01:27:17.790Z,96.70
2018-01-11T01:29:45.258Z,96.72
2018-01-11T01:32:12.764Z,96.60
2018-01-11T01:34:40.243Z,96.48
2018-01-11T01:37:07.770Z,96.37
2018-01-11T01:39:35.269Z,96.30
2018-01-11T01:42:02.744Z,96.28
2018-01-11T01:44:30.235Z,96.22
2018-01-11T01:46:57.778Z,96.18
2018-01-11T01:49:25.267Z,96.12
2018-01-11T01:51:52.766Z,96.00
2018-01-11T01:54:20.294Z,95.78
2018-01-11T01:56:47.852Z,95.74
2018-01-11T01:59:15.335Z,95.81
2018-01-11T02:01:42.885Z,95.87
2018-01-11T02:04:10.373Z,96.00
2018-01-11T02:06:37.865Z,96.06
2018-01-11T02:09:05.373Z,96.08
2018-01-11T02:11:32.869Z,96.01
2018-01-11T02:14:00.382Z,95.92
2018-01-11T02:16:27.858Z,95.87
2018-01-11T02:18:55.347Z,95.83
2018-01-11T02:21:22.878Z,95.74
2018-01-11T02:23:50.350Z,95.59
2018-01-11T02:26:17.869Z,95.52
2018-01-11T02:28:45.390Z,95.53
2018-01-11T02:31:12.872Z,95.60
2018-01-11T02:33:40.351Z,95.59
2018-01-11T02:36:07.854Z,95.40
2018-01-11T02:38:35.326Z,95.19
2018-01-11T02:41:02.909Z,95.04
2018-01-11T02:43:30.428Z,95.02
2018-01-11T02:45:57.921Z,94.95
2018-01-11T02:48:25.446Z,94.77
2018-01-11T02:50:52.954Z,94.77
2018-01-11T02:53:20.461Z,94.71
2018-01-11T02:55:47.955Z,94.70
2018-01-11T02:58:15.528Z,94.86
2018-01-11T03:00:42.994Z,94.82
2018-01-11T03:03:10.500Z,94.67
2018-01-11T03:05:38.004Z,94.48
2018-01-11T03:08:05.493Z,94.31
2018-01-11T03:10:33.010Z,94.32
2018-01-11T03:13:00.496Z,94.30
2018-01-11T03:15:28.016Z,94.18
2018-01-11T03:17:55.508Z,94.23
2018-01-11T03:20:22.994Z,94.13
2018-01-11T03:22:50.487Z,94.20
2018-01-11T03:25:17.950Z,94.14
2018-01-11T03:27:45.430Z,94.15
2018-01-11T03:30:12.943Z,94.15
2018-01-11T03:32:40.446Z,94.15
2018-01-11T03:35:07.910Z,93.89
2018-01-11T03:37:35.563Z,93.72
2018-01-11T03:40:03.050Z,93.60
2018-01-11T03:42:30.522Z,93.49
2018-01-11T03:44:58.027Z,93.47
2018-01-11T03:47:25.511Z,93.41
2018-01-11T03:49:53.001Z,93.39
2018-01-11T03:52:20.483Z,93.28
2018-01-11T03:54:47.958Z,93.13
2018-01-11T03:57:15.446Z,92.99
2018-01-11T03:59:42.906Z,92.70
2018-01-11T04:02:10.381Z,92.35
2018-01-11T04:04:37.909Z,92.32
2018-01-11T04:07:05.396Z,92.22
2018-01-11T04:09:32.906Z,91.99
2018-01-11T04:12:00.389Z,92.00
2018-01-11T04:14:27.895Z,91.98
2018-01-11T04:16:55.367Z,91.62
2018-01-11T04:19:22.890Z,91.53
2018-01-11T04:21:50.363Z,91.54
2018-01-11T04:24:17.825Z,91.43
2018-01-11T04:26:45.326Z,91.76
2018-01-11T04:29:12.818Z,91.79
2018-01-11T04:31:40.318Z,91.83
2018-01-11T04:34:07.802Z,91.96
2018-01-11T04:36:35.290Z,92.49
2018-01-11T04:39:02.766Z,92.62
2018-01-11T04:41:30.259Z,92.63
2018-01-11T04:43:57.750Z,92.43
2018-01-11T04:46:25.222Z,92.16
2018-01-11T04:48:52.727Z,92.05
2018-01-11T04:51:20.194Z,92.11
2018-01-11T04:53:47.658Z,91.86
2018-01-11T04:56:15.143Z,92.00
2018-01-11T04:58:42.630Z,92.00
2018-01-11T05:01:10.141Z,92.42
2018-01-11T05:03:37.627Z,92.04
2018-01-11T05:06:05.090Z,92.06
2018-01-11T05:08:32.665Z,92.20
2018-01-11T05:11:00.171Z,92.54
2018-01-11T05:13:27.658Z,92.75
2018-01-11T05:15:55.142Z,92.85
2018-01-11T05:18:22.699Z,93.15
2018-01-11T05:20:50.213Z,93.13
2018-01-11T05:23:17.706Z,93.25
2018-01-11T05:25:45.217Z,93.51
2018-01-11T05:28:12.704Z,93.71
2018-01-11T05:30:40.199Z,93.72
2018-01-11T05:33:07.698Z,93.81
2018-01-11T05:35:35.192Z,93.95
2018-01-11T05:38:02.694Z,93.99
2018-01-11T05:40:30.201Z,94.02
2018-01-11T05:42:57.694Z,94.18
2018-01-11T05:47:59.143Z,94.15
2018-01-11T05:50:26.658Z,94.10
2018-01-11T05:52:54.168Z,94.11
2018-01-11T05:55:21.699Z,94.07
2018-01-11T05:57:50.895Z,94.12
2018-01-11T06:00:18.367Z,94.04
2018-01-11T06:02:45.826Z,93.96
2018-01-11T06:05:13.329Z,94.02
2018-01-11T06:07:40.793Z,94.13
2018-01-11T06:10:08.282Z,94.13
2018-01-11T06:12:35.776Z,94.13
2018-01-11T06:15:03.307Z,94.79
2018-01-11T06:17:30.797Z,95.41
2018-01-11T06:19:58.333Z,94.63
2018-01-11T06:22:25.814Z,94.35
2018-01-11T06:24:53.341Z,94.25
2018-01-11T06:27:20.831Z,94.46
2018-01-11T06:29:48.370Z,94.59
2018-01-11T06:32:15.906Z,94.47
2018-01-11T06:34:43.374Z,94.20
2018-01-11T06:37:10.863Z,94.13
2018-01-11T06:39:38.371Z,94.16
2018-01-11T06:42:05.996Z,94.10
2018-01-11T06:44:33.491Z,94.07
2018-01-11T06:47:01.059Z,94.23
2018-01-11T06:49:28.573Z,94.47
2018-01-11T06:51:56.042Z,94.49
2018-01-11T06:54:23.545Z,94.42
2018-01-11T06:56:51.078Z,94.36
2018-01-11T06:59:18.582Z,94.43
2018-01-11T07:01:46.094Z,94.51
2018-01-11T07:04:13.577Z,94.66
2018-01-11T07:06:41.046Z,94.75
2018-01-11T07:09:08.530Z,94.82
2018-01-11T07:11:36.018Z,94.82
2018-01-11T07:14:03.530Z,94.93
2018-01-11T07:16:31.005Z,94.98
2018-01-11T07:18:58.848Z,94.91
2018-01-11T07:21:26.343Z,94.91
2018-01-11T07:23:53.822Z,94.93
2018-01-11T07:26:21.296Z,95.01
2018-01-11T07:28:48.782Z,95.07
2018-01-11T07:31:16.342Z,95.09
2018-01-11T07:33:43.844Z,95.04
2018-01-11T07:36:11.357Z,95.13
2018-01-11T07:38:38.830Z,95.13
2018-01-11T07:41:06.362Z,95.17
2018-01-11T07:43:33.826Z,95.19
2018-01-11T07:46:01.324Z,95.17
2018-01-11T07:48:28.810Z,95.18
2018-01-11T07:50:56.305Z,95.20
2018-01-11T07:53:23.796Z,95.14
2018-01-11T07:55:51.290Z,95.06
2018-01-11T07:58:18.769Z,95.10
2018-01-11T08:00:46.257Z,95.15
2018-01-11T08:03:14.691Z,95.17
2018-01-11T08:05:42.169Z,95.21
2018-01-11T08:08:09.631Z,95.21
2018-01-11T08:10:37.138Z,95.14
2018-01-11T08:13:04.626Z,95.10
2018-01-11T08:15:32.444Z,95.14
2018-01-11T08:17:59.933Z,95.13
2018-01-11T08:20:27.430Z,95.08
2018-01-11T08:22:54.915Z,94.77
2018-01-11T08:25:22.398Z,94.57
2018-01-11T08:27:49.890Z,94.58
2018-01-11T08:30:17.350Z,94.61
2018-01-11T08:32:44.862Z,94.65
2018-01-11T08:35:12.345Z,94.77
2018-01-11T08:37:39.803Z,94.92
2018-01-11T08:40:07.332Z,94.87
2018-01-11T08:42:34.810Z,94.78
2018-01-11T08:45:02.266Z,94.70
2018-01-11T08:47:29.768Z,94.71
2018-01-11T08:49:57.251Z,94.76
2018-01-11T08:52:24.730Z,94.85
2018-01-11T08:54:52.198Z,94.80
2018-01-11T08:57:19.690Z,94.66
2018-01-11T08:59:47.206Z,94.66
2018-01-11T09:02:14.701Z,94.92
2018-01-11T09:04:42.198Z,95.14
2018-01-11T09:07:09.736Z,95.07
2018-01-11T09:09:37.200Z,94.92
2018-01-11T09:12:04.664Z,94.79
2018-01-11T09:14:32.172Z,94.68
2018-01-11T09:16:59.737Z,94.61
2018-01-11T09:19:27.202Z,94.42
2018-01-11T09:21:54.691Z,94.32
2018-01-11T09:24:22.235Z,94.22
2018-01-11T09:26:49.725Z,94.13
2018-01-11T09:29:17.218Z,94.19
2018-01-11T09:31:44.798Z,94.17
2018-01-11T09:34:12.258Z,94.18
2018-01-11T09:36:39.724Z,94.08
2018-01-11T09:39:07.220Z,94.18
2018-01-11T09:41:34.707Z,94.20
2018-01-11T09:44:02.174Z,94.12
2018-01-11T09:46:29.642Z,93.97
2018-01-11T09:48:57.165Z,93.78
2018-01-11T09:51:24.660Z,93.76
2018-01-11T09:53:52.175Z,93.75
2018-01-11T09:56:19.658Z,93.59
2018-01-11T09:58:47.158Z,93.67
2018-01-11T10:01:14.635Z,93.67
2018-01-11T10:03:42.125Z,93.56
2018-01-11T10:06:09.627Z,93.14
2018-01-11T10:08:37.093Z,93.21
2018-01-11T10:11:04.563Z,93.52
2018-01-11T10:13:32.078Z,93.50
2018-01-11T10:15:59.590Z,93.36
2018-01-11T10:18:27.075Z,93.59
2018-01-11T10:20:54.606Z,93.40
2018-01-11T10:23:22.151Z,93.62
2018-01-11T10:25:49.656Z,93.94
2018-01-11T10:28:17.155Z,94.05
2018-01-11T10:30:44.642Z,93.80
2018-01-11T10:33:12.178Z,93.62
2018-01-11T10:35:39.678Z,93.37
2018-01-11T10:38:07.173Z,93.55
2018-01-11T10:40:34.698Z,93.48
2018-01-11T10:43:02.162Z,93.62
2018-01-11T10:45:29.626Z,93.66
2018-01-11T10:47:57.138Z,93.61
2018-01-11T10:50:24.626Z,93.62
2018-01-11T10:52:52.096Z,93.64
2018-01-11T10:55:19.594Z,93.60
2018-01-11T10:57:47.142Z,93.77
2018-01-11T11:00:14.626Z,93.71
2018-01-11T11:02:47.872Z,93.60
2018-01-11T11:05:15.334Z,93.63
2018-01-11T11:07:42.842Z,93.82
2018-01-11T11:10:10.550Z,93.52
2018-01-11T11:12:38.037Z,93.25
2018-01-11T11:15:05.503Z,93.17
2018-01-11T11:17:33.030Z,93.49
2018-01-11T11:20:00.559Z,93.81
2018-01-11T11:22:28.048Z,93.73
2018-01-11T11:24:55.551Z,93.75
2018-01-11T11:27:23.030Z,93.94
2018-01-11T11:29:50.515Z,93.82
2018-01-11T11:32:18.034Z,93.43
2018-01-11T11:34:45.516Z,93.32
2018-01-11T11:37:12.983Z,93.57
2018-01-11T11:39:40.472Z,93.27
2018-01-11T11:42:07.957Z,93.04
2018-01-11T11:44:35.426Z,92.89
2018-01-11T11:47:02.915Z,92.84
2018-01-11T11:49:30.454Z,93.16
2018-01-11T11:51:57.930Z,93.27
2018-01-11T11:54:25.436Z,93.23
2018-01-11T11:56:52.908Z,92.83
2018-01-11T11:59:20.436Z,92.74
2018-01-11T12:01:47.934Z,92.55
2018-01-11T12:04:15.398Z,92.78
2018-01-11T12:06:42.899Z,92.98
2018-01-11T12:09:10.390Z,92.92
2018-01-11T12:11:37.913Z,92.54
2018-01-11T12:14:05.403Z,93.09
2018-01-11T12:16:32.941Z,92.85
2018-01-11T12:19:00.403Z,92.94
2018-01-11T12:21:27.891Z,92.88
2018-01-11T12:23:55.371Z,92.72
2018-01-11T12:26:22.870Z,92.68
2018-01-11T12:28:50.446Z,92.70
2018-01-11T12:31:17.911Z,92.63
2018-01-11T12:33:45.406Z,92.14
2018-01-11T12:36:12.899Z,91.99
2018-01-11T12:38:40.386Z,92.08
2018-01-11T12:41:07.875Z,91.89
2018-01-11T12:43:35.383Z,92.23
2018-01-11T12:46:02.866Z,92.00
2018-01-11T12:48:30.346Z,92.17
2018-01-11T12:50:57.845Z,91.83
2018-01-11T12:53:25.346Z,91.96
2018-01-11T12:55:52.842Z,91.91
2018-01-11T12:58:20.335Z,92.12
2018-01-11T13:00:47.842Z,92.70
2018-01-11T13:03:15.310Z,93.25
2018-01-11T13:05:42.851Z,92.93
2018-01-11T13:08:10.322Z,93.02
2018-01-11T13:10:37.796Z,92.99
2018-01-11T13:13:05.286Z,92.93
2018-01-11T13:15:32.795Z,92.49
2018-01-11T13:18:00.265Z,92.30
2018-01-11T13:20:27.790Z,92.51
2018-01-11T13:22:55.279Z,92.75
2018-01-11T13:25:22.769Z,92.67
2018-01-11T13:27:50.461Z,92.65
2018-01-11T13:30:17.931Z,92.85
2018-01-11T13:32:45.468Z,92.91
2018-01-11T13:35:12.963Z,92.68
2018-01-11T13:37:40.466Z,92.45
2018-01-11T13:40:07.939Z,92.61
2018-01-11T13:42:35.415Z,92.65
2018-01-11T13:45:02.879Z,92.55
2018-01-11T13:47:30.363Z,92.90
2018-01-11T13:49:57.882Z,92.84
2018-01-11T13:52:25.387Z,92.82
2018-01-11T13:54:52.875Z,92.70
2018-01-11T13:57:20.383Z,92.65
2018-01-11T13:59:47.852Z,92.61
2018-01-11T14:02:15.372Z,92.47
2018-01-11T14:04:42.862Z,92.47
2018-01-11T14:07:10.322Z,92.35
2018-01-11T14:09:37.839Z,92.62
2018-01-11T14:12:05.318Z,92.65
2018-01-11T14:14:32.833Z,92.64
2018-01-11T14:17:00.314Z,92.43
2018-01-11T14:19:27.835Z,92.40
2018-01-11T14:21:55.344Z,92.37
2018-01-11T14:24:22.871Z,92.30
2018-01-11T14:26:50.341Z,92.41
2018-01-11T14:29:17.813Z,92.56
2018-01-11T14:31:45.317Z,92.77
2018-01-11T14:34:12.804Z,93.16
2018-01-11T14:36:40.275Z,93.15
2018-01-11T14:39:07.898Z,93.20
2018-01-11T14:41:35.382Z,92.99
2018-01-11T14:44:02.875Z,92.99
2018-01-11T14:46:30.364Z,92.95
2018-01-11T14:48:57.871Z,92.70
2018-01-11T14:51:25.364Z,92.58
2018-01-11T14:53:52.926Z,92.68
2018-01-11T14:56:20.418Z,92.95
2018-01-11T14:58:47.921Z,93.04
2018-01-11T15:01:15.406Z,92.95
2018-01-11T15:03:42.922Z,92.79
2018-01-11T15:06:10.715Z,92.66
2018-01-11T15:08:38.198Z,92.87
2018-01-11T15:11:05.698Z,92.82
2018-01-11T15:13:33.186Z,92.88
2018-01-11T15:16:00.656Z,92.92
2018-01-11T15:18:28.154Z,92.91
2018-01-11T15:20:55.620Z,92.94
2018-01-11T15:23:23.122Z,92.60
2018-01-11T15:25:50.624Z,92.28
2018-01-11T15:28:18.086Z,92.13
2018-01-11T15:30:45.597Z,92.59
2018-01-11T15:33:13.085Z,92.36
2018-01-11T15:35:40.566Z,92.79
2018-01-11T15:38:08.063Z,93.31
2018-01-11T15:40:35.551Z,93.06
2018-01-11T15:43:03.104Z,92.66
2018-01-11T15:45:30.572Z,92.30
2018-01-11T15:47:58.415Z,92.42
2018-01-11T15:50:25.896Z,92.26
2018-01-11T15:52:53.402Z,92.02
2018-01-11T15:55:20.929Z,91.81
2018-01-11T15:57:48.414Z,91.97
2018-01-11T16:00:15.879Z,92.33
2018-01-11T16:02:43.405Z,92.61
2018-01-11T16:05:10.867Z,92.90
2018-01-11T16:07:38.351Z,93.17
2018-01-11T16:10:05.907Z,93.31
2018-01-11T16:12:33.402Z,93.30
2018-01-11T16:15:01.274Z,93.29
2018-01-11T16:17:28.791Z,93.58
2018-01-11T16:19:56.278Z,93.92
2018-01-11T16:22:23.768Z,94.07
2018-01-11T16:24:51.389Z,94.20
2018-01-11T16:27:18.880Z,94.09
2018-01-11T16:29:46.343Z,94.04
2018-01-11T16:32:13.874Z,94.18
2018-01-11T16:34:41.364Z,94.43
2018-01-11T16:37:08.874Z,94.84
2018-01-11T16:39:36.383Z,94.95
2018-01-11T16:42:03.958Z,94.82
2018-01-11T16:44:31.471Z,94.62
2018-01-11T16:46:58.991Z,94.77
2018-01-11T16:49:26.543Z,94.74
2018-01-11T16:51:54.007Z,94.45
2018-01-11T16:54:21.521Z,94.14
2018-01-11T16:56:48.994Z,94.17
2018-01-11T16:59:16.475Z,94.21
2018-01-11T17:01:43.979Z,94.22
2018-01-11T17:04:11.452Z,94.30
2018-01-11T17:06:38.911Z,94.41
2018-01-11T17:09:06.432Z,94.28
2018-01-11T17:11:33.966Z,94.31
2018-01-11T17:14:01.451Z,94.14
2018-01-11T17:16:28.957Z,94.02
2018-01-11T17:18:56.438Z,93.96
2018-01-11T17:21:24.542Z,93.73
2018-01-11T17:23:52.051Z,93.60
2018-01-11T17:26:19.532Z,93.75
2018-01-11T17:28:47.028Z,93.71
2018-01-11T17:31:14.564Z,93.88
2018-01-11T17:33:42.070Z,94.23
2018-01-11T17:36:09.561Z,94.34
2018-01-11T17:38:37.122Z,94.31
2018-01-11T17:41:04.711Z,94.65
2018-01-11T17:43:32.204Z,94.39
2018-01-11T17:45:59.822Z,94.51
2018-01-11T17:48:27.312Z,94.54
2018-01-11T17:50:54.787Z,94.38
2018-01-11T17:53:22.281Z,94.51
2018-01-11T17:55:49.767Z,94.57
2018-01-11T17:58:17.238Z,94.46
2018-01-11T18:00:44.742Z,94.24
2018-01-11T18:03:12.285Z,94.31
2018-01-11T18:05:39.753Z,94.43
2018-01-11T18:08:07.248Z,94.41
2018-01-11T18:10:34.799Z,94.41
2018-01-11T18:13:02.285Z,94.42
2018-01-11T18:15:29.804Z,94.60
2018-01-11T18:17:57.280Z,94.66
2018-01-11T18:20:24.768Z,94.72
2018-01-11T18:22:52.275Z,94.60
2018-01-11T18:25:19.756Z,94.54
2018-01-11T18:27:47.234Z,94.56
2018-01-11T18:30:14.727Z,94.40
2018-01-11T18:32:42.236Z,94.69
2018-01-11T18:35:09.714Z,94.78
2018-01-11T18:37:37.208Z,94.63
2018-01-11T18:40:04.682Z,94.63
2018-01-11T18:42:32.194Z,94.67
2018-01-11T18:44:59.689Z,94.70
2018-01-11T18:47:27.149Z,94.67
2018-01-11T18:49:54.656Z,94.54
2018-01-11T18:52:22.191Z,94.53
2018-01-11T18:54:49.841Z,94.42
2018-01-11T18:57:17.318Z,94.36
2018-01-11T18:59:44.806Z,94.51
2018-01-11T19:02:12.326Z,94.65
2018-01-11T19:04:39.824Z,94.71
2018-01-11T19:07:07.299Z,94.76
2018-01-11T19:09:34.824Z,94.54
2018-01-11T19:12:02.369Z,94.63
2018-01-11T19:14:29.866Z,94.55
2018-01-11T19:16:57.409Z,94.36
2018-01-11T19:19:24.889Z,94.04
2018-01-11T19:21:52.435Z,93.78
2018-01-11T19:24:19.932Z,93.62
2018-01-11T19:26:47.441Z,93.94
2018-01-11T19:29:14.911Z,93.87
2018-01-11T19:31:42.418Z,93.88
2018-01-11T19:34:09.901Z,94.05
2018-01-11T19:36:37.434Z,94.20
2018-01-11T19:39:04.903Z,94.32
2018-01-11T19:41:32.387Z,94.33
2018-01-11T19:43:59.910Z,93.72
2018-01-11T19:46:27.433Z,93.67
2018-01-11T19:48:54.954Z,93.63
2018-01-11T19:51:22.501Z,93.68
2018-01-11T19:53:49.979Z,93.64
2018-01-11T19:56:17.483Z,93.52
2018-01-11T19:58:44.994Z,93.65
2018-01-11T20:01:12.467Z,93.51
2018-01-11T20:03:39.931Z,93.26
2018-01-11T20:06:07.423Z,93.26
2018-01-11T20:08:34.915Z,93.66
2018-01-11T20:11:02.415Z,93.76
2018-01-11T20:13:29.910Z,93.90
2018-01-11T20:15:57.422Z,93.94
2018-01-11T20:18:24.963Z,94.12
2018-01-11T20:20:52.471Z,94.38
2018-01-11T20:23:19.980Z,94.45
2018-01-11T20:25:48.305Z,94.32
2018-01-11T20:28:15.820Z,93.89
2018-01-11T20:30:44.273Z,93.58
2018-01-11T20:33:11.750Z,93.70
2018-01-11T20:35:39.281Z,94.01
2018-01-11T20:38:06.761Z,94.06
2018-01-11T20:40:34.259Z,94.08
2018-01-11T20:43:01.766Z,93.97
2018-01-11T20:45:29.269Z,93.73
2018-01-11T20:47:57.480Z,93.65
2018-01-11T20:50:24.992Z,93.49
2018-01-11T20:52:52.484Z,93.38
2018-01-11T20:55:19.980Z,93.46
2018-01-11T20:57:47.464Z,93.79
2018-01-11T21:00:14.983Z,93.94
2018-01-11T21:02:42.460Z,93.82
2018-01-11T21:05:09.962Z,93.57
2018-01-11T21:07:37.496Z,93.58
2018-01-11T21:10:05.000Z,93.54
2018-01-11T21:12:32.471Z,93.40
2018-01-11T21:14:59.974Z,93.16
2018-01-11T21:17:27.573Z,93.26
2018-01-11T21:19:55.064Z,93.63
2018-01-11T21:22:22.562Z,94.01
2018-01-11T21:24:50.074Z,94.39
2018-01-11T21:27:17.574Z,94.39
2018-01-11T21:29:45.119Z,94.27
2018-01-11T21:32:12.609Z,94.19
2018-01-11T21:34:40.109Z,94.26
2018-01-11T21:37:07.605Z,94.33
2018-01-11T21:39:35.112Z,94.39
2018-01-11T21:42:02.621Z,94.36
2018-01-11T21:44:30.206Z,94.39
2018-01-11T21:46:57.701Z,94.48
2018-01-11T21:49:25.204Z,94.26
2018-01-11T21:51:52.731Z,94.02
2018-01-11T21:54:20.210Z,94.06
2018-01-11T21:56:47.687Z,94.13
2018-01-11T21:59:15.186Z,93.76
2018-01-11T22:01:42.738Z,93.56
2018-01-11T22:04:10.246Z,93.54
2018-01-11T22:06:37.763Z,93.50
2018-01-11T22:09:05.311Z,93.61
2018-01-11T22:11:32.782Z,93.43
2018-01-11T22:14:00.280Z,93.31
2018-01-11T22:16:27.774Z,93.34
2018-01-11T22:18:55.605Z,93.26
2018-01-11T22:21:23.111Z,93.47
2018-01-11T22:23:50.612Z,93.71
2018-01-11T22:26:18.120Z,93.84
2018-01-11T22:28:45.590Z,93.89
2018-01-11T22:31:13.058Z,93.48
2018-01-11T22:33:40.583Z,93.44
2018-01-11T22:36:08.088Z,93.59
2018-01-11T22:38:35.606Z,93.75
2018-01-11T22:41:03.093Z,93.79
2018-01-11T22:43:30.579Z,93.62
2018-01-11T22:45:58.075Z,93.35
2018-01-11T22:48:25.685Z,93.14
2018-01-11T22:50:53.186Z,93.50
2018-01-11T22:53:20.720Z,93.81
2018-01-11T22:55:48.204Z,93.97
2018-01-11T22:58:15.713Z,94.17
2018-01-11T23:00:43.339Z,94.31
2018-01-11T23:03:10.818Z,94.39
2018-01-11T23:05:38.278Z,94.44
2018-01-11T23:08:05.784Z,94.44
2018-01-11T23:10:33.339Z,94.62
2018-01-11T23:13:00.889Z,94.64
2018-01-11T23:15:28.397Z,94.46
2018-01-11T23:17:55.905Z,94.20
2018-01-11T23:20:23.379Z,94.41
2018-01-11T23:22:50.934Z,94.39
2018-01-11T23:25:18.425Z,94.46
2018-01-11T23:27:45.962Z,94.48
2018-01-11T23:30:13.549Z,94.25
2018-01-11T23:32:41.058Z,94.15
2018-01-11T23:35:08.610Z,94.08
2018-01-11T23:37:36.129Z,94.06
2018-01-11T23:40:03.607Z,93.81
2018-01-11T23:42:31.085Z,93.78
2018-01-11T23:44:58.609Z,93.75
2018-01-11T23:47:26.092Z,93.58
2018-01-11T23:49:53.579Z,93.34
2018-01-11T23:52:21.103Z,93.00
2018-01-11T23:54:48.584Z,93.12
2018-01-11T23:57:16.065Z,93.21
2018-01-11T23:59:43.601Z,93.77
